Time;durP1;ratioP1;P1;durP2;ratioP2;P2;SDS_P1;SDS_P2;PMS_P1;PMS_P2;Temp;Humidity;BMP_temperature;BMP_pressure;BME280_temperature;BME280_humidity;BME280_pressure;Samples;Min_cycle;Max_cycle;Signal;HPM_P1;HPM_P2
2023/07/08 00:02:18;;;;;;;5.38;3.38;;;;;;;20.65;42.63;100896.09;5048577;28;20244;-60
2023/07/08 00:04:46;;;;;;;4.35;3.05;;;;;;;20.69;43.19;100899.44;5043385;28;20543;-61
2023/07/08 00:07:21;;;;;;;6.45;3.30;;;;;;;20.68;42.61;100898.59;5041934;28;20206;-62
2023/07/08 00:09:49;;;;;;;3.60;3.10;;;;;;;20.70;43.10;100896.78;5051141;28;20533;-60
2023/07/08 00:12:18;;;;;;;4.85;3.45;;;;;;;20.69;43.19;100900.31;5049057;28;20583;-61
2023/07/08 00:14:47;;;;;;;5.68;3.60;;;;;;;20.70;43.46;100904.63;5040717;28;20565;-61
2023/07/08 00:17:15;;;;;;;5.10;3.60;;;;;;;20.70;43.32;100899.41;5047644;28;20205;-60
2023/07/08 00:19:43;;;;;;;7.07;3.40;;;;;;;20.66;42.71;100903.06;5047293;28;20229;-62
2023/07/08 00:22:14;;;;;;;4.95;2.90;;;;;;;20.62;43.15;100893.63;5046816;28;20202;-61
2023/07/08 00:24:43;;;;;;;3.95;2.90;;;;;;;20.60;43.13;100897.22;5040593;28;20567;-61
2023/07/08 00:27:13;;;;;;;5.45;3.35;;;;;;;20.56;43.01;100901.72;5037159;28;20296;-61
2023/07/08 00:29:43;;;;;;;4.68;3.60;;;;;;;20.53;43.17;100904.44;5048426;28;20222;-61
2023/07/08 00:32:14;;;;;;;7.25;3.72;;;;;;;20.47;43.32;100902.91;5043733;28;20197;-60
2023/07/08 00:34:42;;;;;;;5.75;3.47;;;;;;;20.43;43.74;100905.66;5044216;28;20202;-60
2023/07/08 00:37:12;;;;;;;5.50;3.70;;;;;;;20.39;43.78;100906.69;5049343;28;20652;-61
2023/07/08 00:39:41;;;;;;;6.05;3.90;;;;;;;20.33;44.17;100914.81;5047291;28;20696;-61
2023/07/08 00:42:20;;;;;;;3.60;3.28;;;;;;;20.34;44.15;100913.91;5045093;28;20206;-60
2023/07/08 00:44:49;;;;;;;4.15;3.53;;;;;;;20.35;44.39;100918.22;5048912;28;20202;-61
2023/07/08 00:47:18;;;;;;;5.88;3.75;;;;;;;20.34;44.59;100916.50;5050669;28;20206;-62
2023/07/08 00:49:50;;;;;;;4.43;3.60;;;;;;;20.36;45.20;100919.91;5048785;28;20210;-62
2023/07/08 00:52:24;;;;;;;4.63;3.33;;;;;;;20.39;45.01;100909.31;5047610;28;20206;-61
2023/07/08 00:54:54;;;;;;;4.68;3.90;;;;;;;20.40;44.62;100913.63;5049986;28;20205;-61
2023/07/08 00:57:26;;;;;;;5.82;4.00;;;;;;;20.38;45.23;100918.94;5045481;28;20207;-61
2023/07/08 01:00:00;;;;;;;7.25;3.88;;;;;;;20.37;44.94;100916.41;5046771;28;20289;-62
2023/07/08 01:02:29;;;;;;;5.38;3.72;;;;;;;20.35;44.98;100919.06;5042865;28;20267;-61
2023/07/08 01:05:05;;;;;;;7.03;3.65;;;;;;;20.32;45.54;100918.31;5049479;28;20229;-62
2023/07/08 01:07:34;;;;;;;6.80;4.05;;;;;;;20.31;45.52;100917.47;5049262;28;20703;-61
2023/07/08 01:10:04;;;;;;;7.85;4.50;;;;;;;20.29;45.89;100914.06;5045597;28;20854;-61
2023/07/08 01:12:36;;;;;;;4.80;3.78;;;;;;;20.27;45.87;100915.88;5049160;28;20206;-60
2023/07/08 01:15:09;;;;;;;5.75;3.83;;;;;;;20.22;46.12;100920.44;5040926;28;20201;-61
2023/07/08 01:17:37;;;;;;;6.78;4.20;;;;;;;20.18;45.88;100921.47;5041890;28;20663;-61
2023/07/08 01:20:12;;;;;;;6.57;3.85;;;;;;;20.11;46.21;100910.38;5040297;28;20213;-60
2023/07/08 01:22:43;;;;;;;7.15;4.53;;;;;;;20.05;46.51;100909.75;5046047;28;20216;-60
2023/07/08 01:25:14;;;;;;;8.07;4.18;;;;;;;19.97;46.34;100896.97;5036438;28;20621;-60
2023/07/08 01:27:46;;;;;;;6.57;3.70;;;;;;;19.96;46.57;100908.34;5032339;28;20205;-61
2023/07/08 01:30:16;;;;;;;7.80;4.22;;;;;;;19.88;47.14;100910.34;5041408;28;20228;-63
2023/07/08 01:32:49;;;;;;;8.07;4.65;;;;;;;19.81;47.13;100908.88;5043355;28;20209;-63
2023/07/08 01:35:18;;;;;;;6.40;4.22;;;;;;;19.74;47.21;100911.72;5047372;28;20208;-61
2023/07/08 01:37:53;;;;;;;7.40;4.30;;;;;;;19.74;47.35;100911.72;5047916;28;20315;-60
2023/07/08 01:40:28;;;;;;;7.88;4.32;;;;;;;19.68;47.61;100911.94;5046350;28;20202;-63
2023/07/08 01:42:56;;;;;;;7.85;4.50;;;;;;;19.63;48.01;100913.88;5048955;28;20373;-60
2023/07/08 01:45:27;;;;;;;7.55;4.47;;;;;;;19.61;47.99;100913.03;5045002;28;20217;-60
2023/07/08 01:48:00;;;;;;;6.68;4.50;;;;;;;19.60;48.43;100913.09;5045223;28;20552;-62
2023/07/08 01:50:30;;;;;;;8.10;4.20;;;;;;;19.60;48.18;100908.72;5046469;28;20271;-61
2023/07/08 01:53:03;;;;;;;7.45;4.25;;;;;;;19.62;47.99;100913.88;5042940;28;20202;-61
2023/07/08 01:55:31;;;;;;;6.43;4.32;;;;;;;19.58;48.10;100907.91;5046558;28;20625;-61
2023/07/08 01:57:59;;;;;;;8.23;4.65;;;;;;;19.52;48.11;100902.91;5050175;28;20213;-61
2023/07/08 02:00:27;;;;;;;7.47;4.85;;;;;;;19.44;48.16;100902.28;5049138;28;20604;-61
2023/07/08 02:02:55;;;;;;;5.20;4.35;;;;;;;19.39;48.82;100902.44;5039957;28;20222;-60
2023/07/08 02:05:24;;;;;;;5.95;4.47;;;;;;;19.38;48.89;100905.13;5045015;28;20589;-63
2023/07/08 02:07:52;;;;;;;8.35;4.97;;;;;;;19.39;48.96;100899.00;5045786;28;20263;-60
2023/07/08 02:10:21;;;;;;;8.43;4.07;;;;;;;19.37;48.63;100903.41;5052061;28;20279;-61
2023/07/08 02:12:49;;;;;;;6.43;5.00;;;;;;;19.36;48.98;100894.72;5047440;28;20660;-60
2023/07/08 02:15:17;;;;;;;7.25;4.28;;;;;;;19.37;49.04;100885.09;5047276;28;20248;-61
2023/07/08 02:17:45;;;;;;;6.78;4.70;;;;;;;19.37;49.13;100895.56;5044195;28;20209;-61
2023/07/08 02:20:13;;;;;;;8.02;4.95;;;;;;;19.31;49.18;100892.25;5045633;28;20251;-60
2023/07/08 02:22:41;;;;;;;5.95;4.50;;;;;;;19.28;49.43;100894.97;5048589;28;20206;-59
2023/07/08 02:25:10;;;;;;;8.55;4.50;;;;;;;19.25;49.49;100894.22;5048589;28;20591;-68
2023/07/08 02:27:39;;;;;;;7.88;4.65;;;;;;;19.23;49.74;100902.13;5037051;28;20248;-61
2023/07/08 02:30:09;;;;;;;7.47;4.65;;;;;;;19.21;49.74;100890.88;5048470;28;20202;-61
2023/07/08 02:32:38;;;;;;;6.60;4.63;;;;;;;19.19;49.90;100897.06;5053691;28;20662;-60
2023/07/08 02:35:08;;;;;;;11.90;4.80;;;;;;;19.17;50.00;100897.09;5046837;28;20257;-61
2023/07/08 02:37:36;;;;;;;7.72;4.75;;;;;;;19.18;50.15;100896.19;5046097;28;20588;-61
2023/07/08 02:40:06;;;;;;;8.38;4.35;;;;;;;19.20;49.98;100891.78;5044044;28;20201;-62
2023/07/08 02:42:34;;;;;;;7.93;4.43;;;;;;;19.19;50.02;100892.69;5045486;28;20681;-60
2023/07/08 02:45:03;;;;;;;6.53;4.43;;;;;;;19.19;50.09;100887.47;5045216;28;20194;-62
2023/07/08 02:47:31;;;;;;;8.75;4.47;;;;;;;19.18;50.11;100885.75;5043537;28;20208;-62
2023/07/08 02:49:59;;;;;;;7.10;4.95;;;;;;;19.20;50.20;100889.16;5045679;28;20198;-64
2023/07/08 02:52:27;;;;;;;9.90;4.25;;;;;;;19.22;50.08;100889.09;5046434;28;20586;-62
2023/07/08 02:54:55;;;;;;;8.27;4.88;;;;;;;19.22;50.26;100887.38;5042624;28;21094;-60
2023/07/08 02:57:23;;;;;;;8.02;4.88;;;;;;;19.20;50.02;100891.78;5052345;28;20856;-60
2023/07/08 02:59:51;;;;;;;7.28;5.22;;;;;;;19.16;50.40;100898.00;5046104;28;20241;-60
2023/07/08 03:02:22;;;;;;;9.25;5.55;;;;;;;19.09;50.62;100899.13;5047240;28;20205;-60
2023/07/08 03:04:51;;;;;;;8.15;5.20;;;;;;;19.05;50.80;100897.50;5050225;28;20209;-62
2023/07/08 03:07:19;;;;;;;9.82;5.93;;;;;;;19.09;50.72;100899.13;5050408;28;20202;-61
2023/07/08 03:09:47;;;;;;;7.65;4.88;;;;;;;19.14;50.67;100902.41;5045949;28;20272;-60
2023/07/08 03:12:15;;;;;;;7.97;5.40;;;;;;;19.14;50.80;100896.34;5044547;28;20866;-61
2023/07/08 03:14:43;;;;;;;7.97;5.20;;;;;;;19.18;50.74;100906.63;5051084;28;20305;-60
2023/07/08 03:17:11;;;;;;;14.75;8.93;;;;;;;19.22;50.83;100900.44;5045470;28;20232;-61
2023/07/08 03:19:41;;;;;;;8.98;4.95;;;;;;;19.22;50.75;100902.16;5049253;28;20198;-62
2023/07/08 03:22:09;;;;;;;8.77;5.03;;;;;;;19.24;50.92;100905.59;5050164;28;21215;-60
2023/07/08 03:24:37;;;;;;;12.18;5.22;;;;;;;19.21;50.82;100906.53;5037229;28;20202;-60
2023/07/08 03:27:07;;;;;;;6.90;5.07;;;;;;;19.21;51.06;100900.47;5041608;28;20234;-67
2023/07/08 03:29:35;;;;;;;7.97;5.45;;;;;;;19.23;51.22;100909.13;5034671;28;20581;-66
2023/07/08 03:32:04;;;;;;;7.78;4.75;;;;;;;19.24;50.97;100911.66;5044306;28;20198;-67
2023/07/08 03:34:31;;;;;;;9.75;5.43;;;;;;;19.26;51.11;100909.88;5050925;28;20214;-66
2023/07/08 03:37:01;;;;;;;6.55;5.20;;;;;;;19.27;51.38;100911.56;5043144;28;20210;-67
2023/07/08 03:39:31;;;;;;;9.48;5.82;;;;;;;19.28;51.44;100907.19;5042722;28;20210;-68
2023/07/08 03:41:59;;;;;;;9.85;5.50;;;;;;;19.33;51.48;100909.66;5038269;28;20297;-67
2023/07/08 03:44:27;;;;;;;9.27;5.80;;;;;;;19.37;51.37;100906.00;5044686;28;20242;-68
2023/07/08 03:46:56;;;;;;;8.75;5.25;;;;;;;19.33;51.67;100897.47;5041712;28;20203;-68
2023/07/08 03:49:25;;;;;;;9.90;6.03;;;;;;;19.41;51.44;100907.66;5041233;28;20594;-67
2023/07/08 03:51:54;;;;;;;8.15;5.38;;;;;;;19.42;51.27;100904.97;5049756;28;20288;-67
2023/07/08 03:54:25;;;;;;;11.55;6.10;;;;;;;19.46;51.50;100905.72;5049056;28;20637;-67
2023/07/08 03:56:54;;;;;;;7.28;5.60;;;;;;;19.48;51.38;100909.16;5046282;28;20198;-67
2023/07/08 03:59:22;;;;;;;8.23;5.40;;;;;;;19.52;51.35;100900.28;5042505;28;20549;-67
2023/07/08 04:01:50;;;;;;;9.63;6.35;;;;;;;19.54;51.40;100908.91;5036389;28;20200;-68
2023/07/08 04:04:18;;;;;;;8.15;5.60;;;;;;;19.58;51.56;100907.03;5045563;28;20225;-66
2023/07/08 04:06:46;;;;;;;9.20;5.80;;;;;;;19.64;51.28;100909.50;5050266;28;20206;-68
2023/07/08 04:09:14;;;;;;;8.18;5.22;;;;;;;19.70;51.18;100910.13;5043044;28;20209;-68
2023/07/08 04:11:44;;;;;;;7.38;4.82;;;;;;;19.78;51.15;100904.63;5047862;28;20622;-68
2023/07/08 04:14:13;;;;;;;7.20;5.60;;;;;;;19.86;50.63;100899.13;5039614;28;20202;-68
2023/07/08 04:16:49;;;;;;;5.65;3.83;;;;;;;19.92;50.14;100893.63;5040754;28;20203;-68
2023/07/08 04:19:17;;;;;;;6.50;4.20;;;;;;;20.00;48.30;100896.84;5045301;28;20590;-66
2023/07/08 04:21:46;;;;;;;7.53;3.83;;;;;;;20.10;46.85;100898.19;5048354;28;20659;-65
2023/07/08 04:24:16;;;;;;;9.13;3.72;;;;;;;20.23;45.90;100894.22;5037711;28;20293;-67
2023/07/08 04:26:47;;;;;;;6.38;3.38;;;;;;;20.38;44.77;100897.16;5039477;28;20237;-65
2023/07/08 04:29:18;;;;;;;7.18;3.30;;;;;;;20.54;44.30;100894.81;5032409;28;20234;-65
2023/07/08 04:31:47;;;;;;;5.95;2.92;;;;;;;20.68;43.29;100890.75;5044688;28;20224;-67
2023/07/08 04:34:16;;;;;;;6.43;3.45;;;;;;;20.78;42.29;100891.22;5042741;28;20210;-66
2023/07/08 04:36:45;;;;;;;3.47;3.00;;;;;;;20.88;42.25;100889.94;5044641;28;20601;-66
2023/07/08 04:39:14;;;;;;;4.32;3.42;;;;;;;20.98;42.25;100883.41;5051171;28;20210;-69
2023/07/08 04:41:43;;;;;;;3.38;3.08;;;;;;;21.09;41.96;100890.81;5050263;28;20198;-67
2023/07/08 04:44:14;;;;;;;4.63;3.55;;;;;;;21.21;41.93;100879.84;5047674;28;20244;-68
2023/07/08 04:46:48;;;;;;;5.20;3.35;;;;;;;21.31;41.42;100884.66;5047456;28;20292;-68
2023/07/08 04:49:16;;;;;;;5.47;3.42;;;;;;;21.39;41.19;100887.84;5037964;28;20197;-66
2023/07/08 04:51:46;;;;;;;3.75;3.10;;;;;;;21.43;40.96;100882.41;5045629;28;20283;-66
2023/07/08 04:54:14;;;;;;;3.40;3.10;;;;;;;21.48;40.68;100887.47;5046206;28;20202;-66
2023/07/08 04:56:44;;;;;;;5.38;3.22;;;;;;;21.52;40.50;100881.16;5048386;28;20229;-68
2023/07/08 04:59:16;;;;;;;3.78;3.45;;;;;;;21.64;40.66;100891.09;5038106;28;20247;-67
2023/07/08 05:01:44;;;;;;;7.38;2.88;;;;;;;21.74;40.16;100878.44;5046668;28;20205;-67
2023/07/08 05:04:18;;;;;;;6.35;3.25;;;;;;;21.88;40.14;100885.69;5041982;28;20199;-67
2023/07/08 05:06:47;;;;;;;3.72;3.30;;;;;;;22.00;39.61;100882.50;5045670;28;20274;-67
2023/07/08 05:09:15;;;;;;;5.28;3.65;;;;;;;22.08;38.98;100883.00;5041918;28;20599;-66
2023/07/08 05:11:45;;;;;;;4.32;3.42;;;;;;;22.17;39.13;100887.03;5042326;28;20268;-69
2023/07/08 05:14:14;;;;;;;5.20;3.55;;;;;;;22.26;38.64;100885.75;5045493;28;20206;-68
2023/07/08 05:16:42;;;;;;;4.57;3.20;;;;;;;22.34;38.46;100889.69;5047367;28;20321;-67
2023/07/08 05:19:10;;;;;;;6.70;3.35;;;;;;;22.42;38.19;100891.97;5049670;28;20267;-68
2023/07/08 05:21:39;;;;;;;6.30;3.50;;;;;;;22.52;38.04;100882.72;5040314;28;20201;-70
2023/07/08 05:24:07;;;;;;;6.63;3.83;;;;;;;22.65;37.87;100883.00;5043474;28;20581;-69
2023/07/08 05:26:35;;;;;;;4.85;3.17;;;;;;;22.76;37.60;100882.50;5037419;28;20284;-69
2023/07/08 05:29:04;;;;;;;6.15;2.67;;;;;;;22.89;37.17;100883.56;5040328;28;20212;-67
2023/07/08 05:31:34;;;;;;;4.80;3.35;;;;;;;23.09;37.04;100883.47;5049083;28;20301;-67
2023/07/08 05:34:05;;;;;;;4.88;3.10;;;;;;;23.26;36.56;100879.13;5054541;28;20209;-65
2023/07/08 05:36:33;;;;;;;7.00;3.85;;;;;;;23.36;36.25;100886.47;5050253;28;20329;-66
2023/07/08 05:39:01;;;;;;;3.85;3.03;;;;;;;23.49;36.34;100886.69;5045806;28;20212;-64
2023/07/08 05:41:29;;;;;;;6.40;3.30;;;;;;;23.67;36.06;100889.31;5048137;28;20210;-65
2023/07/08 05:43:57;;;;;;;6.15;3.47;;;;;;;23.87;35.44;100881.22;5052344;28;20254;-65
2023/07/08 05:46:25;;;;;;;4.28;2.85;;;;;;;24.04;34.95;100889.06;5051137;28;20627;-66
2023/07/08 05:48:55;;;;;;;3.47;2.53;;;;;;;24.23;34.48;100882.75;5053957;28;20224;-65
2023/07/08 05:51:25;;;;;;;4.60;2.90;;;;;;;24.45;34.09;100882.44;5043700;28;20637;-64
2023/07/08 05:53:53;;;;;;;3.35;2.53;;;;;;;24.53;33.23;100875.84;5054792;28;20635;-66
2023/07/08 05:56:21;;;;;;;3.78;2.78;;;;;;;24.65;32.91;100876.06;5053213;28;20214;-66
2023/07/08 05:58:49;;;;;;;5.07;3.00;;;;;;;24.82;33.11;100878.59;5052742;28;20599;-64
2023/07/08 06:01:17;;;;;;;4.72;2.80;;;;;;;25.03;32.93;100869.41;5050639;28;20201;-64
2023/07/08 06:03:45;;;;;;;2.90;2.42;;;;;;;25.20;32.25;100867.63;5045184;28;20210;-64
2023/07/08 06:06:15;;;;;;;7.72;2.85;;;;;;;25.36;31.63;100871.03;5044044;28;20234;-66
2023/07/08 06:08:43;;;;;;;5.03;2.28;;;;;;;25.44;31.60;100863.53;5042546;28;20212;-63
2023/07/08 06:11:13;;;;;;;5.78;2.38;;;;;;;25.50;30.90;100857.84;5048608;28;20304;-69
2023/07/08 06:13:41;;;;;;;3.00;2.30;;;;;;;25.69;30.59;100862.00;5048940;28;20202;-68
2023/07/08 06:16:09;;;;;;;6.00;2.60;;;;;;;25.84;30.01;100860.25;5057593;28;20209;-74
2023/07/08 06:18:38;;;;;;;4.10;2.40;;;;;;;25.92;29.46;100869.41;5048936;28;20210;-65
2023/07/08 06:21:07;;;;;;;3.88;2.25;;;;;;;25.95;28.93;100868.34;5050565;28;20205;-67
2023/07/08 06:23:36;;;;;;;3.50;2.17;;;;;;;26.03;29.05;100855.50;5049397;28;20229;-66
2023/07/08 06:26:04;;;;;;;3.80;2.15;;;;;;;26.10;28.83;100859.44;5038657;28;20230;-66
2023/07/08 06:28:32;;;;;;;6.55;2.50;;;;;;;26.08;29.05;100858.72;5051424;28;20576;-67
2023/07/08 06:31:00;;;;;;;3.13;2.47;;;;;;;26.10;29.22;100861.25;5050268;28;20210;-67
2023/07/08 06:33:28;;;;;;;5.50;2.13;;;;;;;26.15;29.12;100856.53;5046819;28;20210;-66
2023/07/08 06:35:56;;;;;;;4.18;2.22;;;;;;;26.29;29.23;100861.78;5053873;28;20653;-67
2023/07/08 06:38:24;;;;;;;3.95;2.20;;;;;;;26.46;29.13;100853.63;5052406;28;20599;-66
2023/07/08 06:40:54;;;;;;;2.80;2.35;;;;;;;26.65;29.16;100855.06;5049519;28;20201;-69
2023/07/08 06:43:22;;;;;;;4.90;2.60;;;;;;;26.88;29.32;100857.03;5053282;28;20595;-67
2023/07/08 06:45:50;;;;;;;6.63;2.42;;;;;;;27.04;28.60;100853.34;5053714;28;20564;-67
2023/07/08 06:48:18;;;;;;;3.35;2.00;;;;;;;27.20;28.05;100859.31;5045078;28;20208;-67
2023/07/08 06:50:48;;;;;;;4.30;2.17;;;;;;;27.28;27.96;100849.06;5041694;28;20579;-65
2023/07/08 06:53:16;;;;;;;4.53;2.15;;;;;;;27.23;27.21;100858.28;5044369;28;20347;-66
2023/07/08 06:55:45;;;;;;;4.82;2.15;;;;;;;27.22;27.39;100852.13;5050024;28;20226;-67
2023/07/08 06:58:14;;;;;;;3.40;2.00;;;;;;;27.32;26.96;100853.22;5052445;28;20637;-68
2023/07/08 07:00:43;;;;;;;5.63;1.65;;;;;;;27.43;27.06;100849.78;5048222;28;20233;-68
2023/07/08 07:03:13;;;;;;;3.35;1.77;;;;;;;27.58;26.55;100853.19;5045687;28;20209;-66
2023/07/08 07:05:42;;;;;;;3.08;1.73;;;;;;;27.62;26.26;100841.44;5040413;28;20550;-66
2023/07/08 07:08:10;;;;;;;2.08;1.88;;;;;;;27.64;26.44;100842.16;5048809;28;20276;-67
2023/07/08 07:10:38;;;;;;;2.63;1.70;;;;;;;27.75;26.10;100830.84;5046538;28;20206;-67
2023/07/08 07:13:07;;;;;;;4.95;1.70;;;;;;;27.93;25.91;100843.63;5052716;28;20205;-66
2023/07/08 07:15:36;;;;;;;2.83;1.60;;;;;;;28.04;25.55;100842.00;5048402;28;20317;-67
2023/07/08 07:18:04;;;;;;;4.75;1.92;;;;;;;28.01;25.28;100834.28;5042009;28;20745;-66
2023/07/08 07:20:34;;;;;;;1.88;1.67;;;;;;;27.74;25.61;100835.28;5042441;28;20296;-69
2023/07/08 07:23:02;;;;;;;4.05;2.03;;;;;;;27.50;25.99;100835.19;5041134;28;20268;-63
2023/07/08 07:25:31;;;;;;;2.67;1.77;;;;;;;27.43;25.82;100839.22;5045487;28;20205;-67
2023/07/08 07:27:59;;;;;;;2.13;1.60;;;;;;;27.38;25.99;100836.88;5047635;28;20194;-64
2023/07/08 07:30:27;;;;;;;1.55;1.40;;;;;;;27.27;26.00;100834.13;5045099;28;20198;-68
2023/07/08 07:32:59;;;;;;;1.60;1.50;;;;;;;27.16;25.86;100834.03;5050582;28;20241;-67
2023/07/08 07:35:28;;;;;;;5.32;1.65;;;;;;;27.18;25.74;100834.78;5042242;28;20252;-67
2023/07/08 07:37:56;;;;;;;1.52;1.42;;;;;;;28.68;25.74;100828.50;5050303;28;20224;-65
2023/07/08 07:40:24;;;;;;;1.55;1.45;;;;;;;31.62;21.36;100818.81;5050408;28;20209;-66
2023/07/08 07:42:52;;;;;;;2.88;2.00;;;;;;;34.66;18.27;100809.78;5050677;28;20206;-65
2023/07/08 07:45:22;;;;;;;5.22;1.80;;;;;;;37.19;15.22;100815.06;5052332;28;20577;-65
2023/07/08 07:47:50;;;;;;;3.33;1.83;;;;;;;38.76;13.66;100806.75;5049775;28;20667;-65
2023/07/08 07:50:20;;;;;;;2.38;1.50;;;;;;;38.88;13.45;100808.00;5040364;28;20624;-64
2023/07/08 07:52:48;;;;;;;2.28;1.50;;;;;;;38.28;13.65;100819.59;5040999;28;20693;-64
2023/07/08 07:55:16;;;;;;;2.00;1.70;;;;;;;37.99;13.81;100819.47;5045730;28;20208;-65
2023/07/08 07:57:45;;;;;;;1.95;1.50;;;;;;;36.87;14.51;100818.66;5041810;28;20305;-66
2023/07/08 08:00:14;;;;;;;3.20;1.42;;;;;;;35.71;15.90;100826.69;5050759;28;20237;-65
2023/07/08 08:02:43;;;;;;;2.65;1.60;;;;;;;34.56;16.59;100822.41;5044843;28;20212;-67
2023/07/08 08:05:11;;;;;;;2.17;1.60;;;;;;;33.22;18.09;100821.19;5041820;28;20190;-66
2023/07/08 08:07:41;;;;;;;2.72;1.60;;;;;;;32.20;19.13;100821.63;5036870;28;20277;-67
2023/07/08 08:10:12;;;;;;;3.67;1.50;;;;;;;31.49;20.06;100827.03;5044514;28;20293;-65
2023/07/08 08:12:40;;;;;;;1.40;1.30;;;;;;;30.76;20.57;100817.34;5040326;28;20612;-66
2023/07/08 08:15:22;;;;;;;2.22;1.35;;;;;;;29.92;21.60;100819.75;5043806;28;20209;-65
2023/07/08 08:17:51;;;;;;;2.10;1.30;;;;;;;29.36;22.20;100820.59;5042096;28;20620;-66
2023/07/08 08:20:22;;;;;;;1.52;1.42;;;;;;;29.02;23.20;100818.88;5044524;28;20293;-62
2023/07/08 08:22:51;;;;;;;2.85;1.35;;;;;;;28.61;23.41;100822.81;5039511;28;20379;-66
2023/07/08 08:25:21;;;;;;;1.30;1.20;;;;;;;28.40;23.62;100825.28;5044212;28;20221;-63
2023/07/08 08:27:49;;;;;;;3.17;1.98;;;;;;;28.31;23.29;100826.75;5040235;28;20628;-65
2023/07/08 08:30:19;;;;;;;1.80;1.40;;;;;;;28.34;23.43;100831.81;5034128;28;20210;-64
2023/07/08 08:32:47;;;;;;;5.05;1.50;;;;;;;28.44;23.41;100832.03;5039564;28;20208;-64
2023/07/08 08:35:16;;;;;;;3.22;2.05;;;;;;;28.54;23.63;100826.91;5046171;28;20213;-64
2023/07/08 08:37:44;;;;;;;4.28;1.73;;;;;;;28.61;23.74;100821.03;5044420;28;20213;-64
2023/07/08 08:40:17;;;;;;;2.83;1.58;;;;;;;28.61;24.03;100828.09;5047142;28;20230;-65
2023/07/08 08:42:54;;;;;;;2.58;1.58;;;;;;;28.42;23.83;100818.88;5051096;28;20202;-64
2023/07/08 08:45:25;;;;;;;1.50;1.35;;;;;;;28.36;24.39;100823.78;5051075;28;20202;-64
2023/07/08 08:47:59;;;;;;;2.17;1.45;;;;;;;28.38;24.26;100830.66;5051343;28;20194;-63
2023/07/08 08:50:32;;;;;;;3.65;1.40;;;;;;;28.41;23.86;100827.78;5051113;28;20602;-64
2023/07/08 08:53:03;;;;;;;1.50;1.40;;;;;;;28.34;23.96;100826.50;5051013;28;20622;-63
2023/07/08 08:55:33;;;;;;;1.95;1.75;;;;;;;28.20;24.38;100820.53;5050894;28;20198;-65
2023/07/08 08:58:11;;;;;;;3.97;1.75;;;;;;;28.23;24.51;100807.91;5051059;28;20209;-63
2023/07/08 09:00:54;;;;;;;6.07;1.70;;;;;;;28.42;24.12;100810.91;5050901;28;20267;-64
2023/07/08 09:03:34;;;;;;;2.53;1.85;;;;;;;28.70;23.70;100821.28;5045274;28;20206;-64
2023/07/08 09:06:13;;;;;;;1.85;1.60;;;;;;;28.44;23.68;100829.38;5051087;28;20212;-63
2023/07/08 09:08:42;;;;;;;2.95;1.75;;;;;;;28.43;24.10;100817.09;5047950;28;20202;-65
2023/07/08 09:11:26;;;;;;;2.13;1.50;;;;;;;28.59;24.00;100824.75;5038275;28;20642;-65
2023/07/08 09:13:55;;;;;;;1.48;1.30;;;;;;;28.57;23.69;100816.03;5049766;28;20205;-63
2023/07/08 09:16:32;;;;;;;2.05;1.65;;;;;;;28.66;23.91;100812.72;5050885;28;20214;-64
2023/07/08 09:19:07;;;;;;;1.60;1.30;;;;;;;28.67;23.91;100825.00;5050549;28;20221;-64
2023/07/08 09:21:41;;;;;;;1.70;1.60;;;;;;;28.63;24.12;100826.19;5050757;28;20197;-63
2023/07/08 09:24:17;;;;;;;6.30;1.73;;;;;;;28.73;23.96;100819.25;5036617;28;20256;-64
2023/07/08 09:26:51;;;;;;;1.63;1.52;;;;;;;28.72;23.13;100814.91;5042917;28;20344;-63
2023/07/08 09:29:19;;;;;;;2.25;1.45;;;;;;;28.71;23.36;100822.97;5031878;28;20570;-64
2023/07/08 09:31:47;;;;;;;1.48;1.27;;;;;;;28.83;23.49;100822.91;5045148;28;20549;-64
2023/07/08 09:34:17;;;;;;;1.35;1.25;;;;;;;28.98;23.23;100822.66;5033908;28;20246;-65
2023/07/08 09:36:48;;;;;;;1.58;1.40;;;;;;;28.94;23.28;100816.75;5030818;28;20238;-63
2023/07/08 09:39:18;;;;;;;2.10;1.63;;;;;;;28.76;23.82;100819.03;5030928;28;20222;-64
2023/07/08 09:41:50;;;;;;;5.93;1.65;;;;;;;28.37;24.58;100821.03;5030885;28;20557;-65
2023/07/08 09:44:28;;;;;;;1.73;1.40;;;;;;;28.17;24.73;100819.81;5031007;28;20393;-65
2023/07/08 09:46:58;;;;;;;1.88;1.50;;;;;;;28.08;24.46;100809.88;5030774;28;20218;-64
2023/07/08 09:49:30;;;;;;;2.88;1.65;;;;;;;28.15;24.63;100805.81;5030940;28;20210;-64
2023/07/08 09:51:59;;;;;;;1.85;1.67;;;;;;;28.32;23.98;100817.00;5030594;28;20202;-64
2023/07/08 09:54:27;;;;;;;3.20;1.40;;;;;;;28.31;24.36;100805.53;5042223;28;20264;-65
2023/07/08 09:57:00;;;;;;;3.22;1.80;;;;;;;28.49;24.04;100799.88;5036306;28;20206;-64
2023/07/08 09:59:35;;;;;;;2.88;1.83;;;;;;;28.68;23.93;100805.47;5039464;28;20219;-63
2023/07/08 10:02:22;;;;;;;2.63;1.67;;;;;;;28.45;24.16;100809.00;5030391;28;20237;-64
2023/07/08 10:04:54;;;;;;;1.77;1.58;;;;;;;28.18;24.58;100808.25;5030683;28;20199;-63
2023/07/08 10:07:22;;;;;;;1.65;1.40;;;;;;;27.89;24.53;100820.97;5030829;28;20202;-64
2023/07/08 10:09:55;;;;;;;3.05;1.85;;;;;;;27.74;24.55;100811.44;5032512;28;20256;-64
2023/07/08 10:12:25;;;;;;;2.03;1.52;;;;;;;27.82;24.46;100809.13;5030029;28;20252;-64
2023/07/08 10:14:57;;;;;;;4.35;1.67;;;;;;;28.31;24.07;100805.53;5035474;28;20210;-64
2023/07/08 10:17:25;;;;;;;1.35;1.25;;;;;;;30.19;22.08;100800.72;5033652;28;20206;-64
2023/07/08 10:19:53;;;;;;;2.03;1.42;;;;;;;32.64;19.57;100792.75;5034044;28;20207;-65
2023/07/08 10:22:35;;;;;;;1.60;1.45;;;;;;;34.81;17.31;100791.34;5047535;28;20222;-66
2023/07/08 10:25:25;;;;;;;2.90;1.67;;;;;;;35.79;16.20;100789.16;5045983;28;20222;-64
2023/07/08 10:28:02;;;;;;;1.45;1.20;;;;;;;36.50;16.04;100791.31;5033745;28;20257;-67
2023/07/08 10:30:37;;;;;;;2.53;1.40;;;;;;;36.01;15.38;100785.91;5044441;28;20265;-63
2023/07/08 10:33:21;;;;;;;1.52;1.42;;;;;;;35.34;15.81;100787.63;5053459;28;20205;-64
2023/07/08 10:36:10;;;;;;;1.85;1.40;;;;;;;36.02;15.76;100787.56;5053513;28;20202;-64
2023/07/08 10:38:51;;;;;;;1.50;1.40;;;;;;;37.42;14.81;100775.72;5046046;28;20341;-63
2023/07/08 10:41:39;;;;;;;2.22;1.50;;;;;;;38.76;13.27;100768.22;5033979;28;20207;-65
2023/07/08 10:44:15;;;;;;;2.85;1.58;;;;;;;38.94;13.60;100757.09;5040403;28;20567;-65
2023/07/08 10:46:55;;;;;;;3.30;1.42;;;;;;;37.76;13.89;100771.81;5033178;28;20210;-64
2023/07/08 10:49:43;;;;;;;1.40;1.20;;;;;;;37.30;14.58;100776.22;5045720;28;20565;-63
2023/07/08 10:52:32;;;;;;;1.25;1.15;;;;;;;37.02;14.36;100773.16;5046199;28;20372;-63
2023/07/08 10:55:14;;;;;;;1.67;1.40;;;;;;;35.27;15.82;100763.31;5047441;28;20228;-64
2023/07/08 10:58:25;;;;;;;2.03;1.83;;;;;;;33.36;18.16;100769.09;5033192;28;20212;-64
2023/07/08 11:01:01;;;;;;;2.05;1.67;;;;;;;31.45;20.05;100774.19;5023093;28;20207;-64
2023/07/08 11:03:44;;;;;;;1.45;1.23;;;;;;;30.42;21.85;100776.75;5032919;28;20202;-66
2023/07/08 11:06:18;;;;;;;2.28;1.33;;;;;;;31.33;21.24;100760.09;5033072;28;20232;-63
2023/07/08 11:08:51;;;;;;;2.53;1.70;;;;;;;32.10;19.71;100762.13;5039222;28;20616;-63
2023/07/08 11:11:31;;;;;;;2.15;1.73;;;;;;;31.74;19.93;100767.09;5033057;28;20202;-63
2023/07/08 11:14:06;;;;;;;1.50;1.40;;;;;;;30.86;21.05;100761.50;5043475;28;20198;-66
2023/07/08 11:16:44;;;;;;;2.42;1.52;;;;;;;30.20;22.06;100761.72;5049026;28;20206;-65
2023/07/08 11:19:20;;;;;;;3.10;1.92;;;;;;;29.70;22.46;100759.53;5033009;28;20210;-65
2023/07/08 11:21:52;;;;;;;1.77;1.67;;;;;;;29.52;22.90;100755.66;5042069;28;20209;-64
2023/07/08 11:24:27;;;;;;;4.80;1.90;;;;;;;30.07;22.19;100753.88;5036849;28;20207;-65
2023/07/08 11:26:58;;;;;;;5.10;1.73;;;;;;;31.06;22.00;100754.50;5031718;28;20250;-63
2023/07/08 11:29:36;;;;;;;2.25;1.70;;;;;;;32.64;20.24;100735.88;5034305;28;20206;-65
2023/07/08 11:32:09;;;;;;;2.38;1.77;;;;;;;34.15;18.22;100736.41;5047004;28;20193;-64
2023/07/08 11:34:39;;;;;;;1.83;1.70;;;;;;;34.99;16.48;100743.91;5036167;28;20215;-67
2023/07/08 11:37:08;;;;;;;1.95;1.85;;;;;;;35.13;16.49;100738.97;5032536;28;20238;-63
2023/07/08 11:39:42;;;;;;;2.63;2.05;;;;;;;34.40;16.85;100734.78;5032505;28;20642;-64
2023/07/08 11:42:19;;;;;;;2.00;1.90;;;;;;;33.37;17.39;100733.38;5032932;28;20285;-63